createdAt,value
2023-05-13T00:01:08.322Z,13.00
2023-05-13T00:06:10.434Z,14.57
2023-05-13T00:11:13.272Z,14.85
2023-05-13T00:16:15.461Z,15.00
2023-05-13T00:21:17.566Z,14.15
2023-05-13T00:26:19.849Z,15.32
2023-05-13T00:31:24.095Z,13.88
2023-05-13T00:36:27.435Z,15.15
2023-05-13T00:41:29.886Z,15.35
2023-05-13T00:46:33.328Z,12.07
2023-05-13T00:51:36.504Z,15.55
2023-05-13T00:56:39.348Z,11.80
2023-05-13T01:01:53.883Z,13.68
2023-05-13T01:07:44.464Z,13.40
2023-05-13T01:12:46.960Z,14.10
2023-05-13T01:17:58.413Z,12.48
2023-05-13T01:23:00.603Z,13.10
2023-05-13T01:28:03.330Z,10.30
2023-05-13T01:33:07.299Z,10.63
2023-05-13T01:38:10.235Z,11.25
2023-05-13T01:43:12.900Z,12.25
2023-05-13T01:48:15.189Z,10.82
2023-05-13T01:53:20.555Z,10.25
2023-05-13T01:58:28.923Z,11.88
2023-05-13T02:03:31.359Z,11.30
2023-05-13T02:08:34.078Z,10.48
2023-05-13T02:13:36.291Z,10.10
2023-05-13T02:18:38.730Z,10.55
2023-05-13T02:23:41.229Z,10.52
2023-05-13T02:28:43.431Z,9.70
2023-05-13T02:33:49.712Z,11.35
2023-05-13T02:38:51.933Z,12.63
2023-05-13T02:43:55.834Z,10.05
2023-05-13T02:48:59.748Z,10.90
2023-05-13T02:54:05.378Z,11.07
2023-05-13T02:59:07.550Z,15.10
2023-05-13T03:04:09.775Z,19.10
2023-05-13T03:09:11.881Z,14.02
2023-05-13T03:14:14.085Z,13.38
2023-05-13T03:19:16.413Z,12.38
2023-05-13T03:24:18.929Z,14.18
2023-05-13T03:29:21.150Z,14.15
2023-05-13T03:34:27.667Z,10.88
2023-05-13T03:39:30.295Z,12.85
2023-05-13T03:44:32.618Z,13.75
2023-05-13T03:49:35.090Z,13.52
2023-05-13T03:54:37.297Z,11.63
2023-05-13T03:59:39.480Z,14.40
2023-05-13T04:04:42.845Z,12.65
2023-05-13T04:09:44.961Z,11.73
2023-05-13T04:14:47.273Z,11.15
2023-05-13T04:19:52.996Z,14.43
2023-05-13T04:24:57.087Z,15.98
2023-05-13T04:29:59.333Z,11.38
2023-05-13T04:35:03.236Z,12.38
2023-05-13T04:40:08.319Z,12.60
2023-05-13T04:45:10.804Z,12.95
2023-05-13T04:50:13.116Z,13.65
2023-05-13T04:55:16.085Z,12.38
2023-05-13T05:00:18.840Z,15.90
2023-05-13T05:05:23.788Z,10.30
2023-05-13T05:10:26.216Z,11.35
2023-05-13T05:15:33.563Z,14.45
2023-05-13T05:20:38.237Z,12.52
2023-05-13T05:25:43.777Z,13.10
2023-05-13T05:30:46.618Z,15.43
2023-05-13T05:35:58.466Z,14.10
2023-05-13T05:41:00.899Z,14.15
2023-05-13T05:46:05.173Z,16.70
2023-05-13T05:51:07.543Z,19.00
2023-05-13T05:56:11.657Z,16.23
2023-05-13T06:01:13.840Z,13.35
2023-05-13T06:06:15.973Z,14.02
2023-05-13T06:11:19.864Z,17.23
2023-05-13T06:16:22.152Z,16.63
2023-05-13T06:21:27.185Z,14.05
2023-05-13T06:26:29.826Z,13.02
2023-05-13T06:31:32.088Z,13.52
2023-05-13T06:36:34.403Z,12.27
2023-05-13T06:41:40.867Z,15.65
2023-05-13T06:46:48.059Z,13.73
2023-05-13T06:51:50.842Z,19.42
2023-05-13T06:56:55.272Z,14.38
2023-05-13T07:01:57.491Z,15.50
2023-05-13T07:06:59.638Z,13.65
2023-05-13T07:12:01.891Z,17.42
2023-05-13T07:17:04.338Z,18.33
2023-05-13T07:22:06.526Z,16.85
2023-05-13T07:27:09.302Z,14.80
2023-05-13T07:32:11.441Z,15.27
2023-05-13T07:37:13.733Z,11.77
2023-05-13T07:42:16.506Z,16.20
2023-05-13T07:47:18.776Z,12.77
2023-05-13T07:52:21.031Z,15.23
2023-05-13T07:57:23.326Z,14.25
2023-05-13T08:02:25.732Z,11.90
2023-05-13T08:07:28.532Z,11.32
2023-05-13T08:12:30.724Z,17.40
2023-05-13T08:17:33.679Z,16.50
2023-05-13T08:22:35.839Z,14.00
2023-05-13T08:27:37.948Z,14.75
2023-05-13T08:32:40.087Z,14.35
2023-05-13T08:37:42.698Z,16.55
2023-05-13T08:42:48.028Z,16.35
2023-05-13T08:47:52.902Z,12.80
2023-05-13T08:53:00.347Z,13.43
2023-05-13T08:58:02.490Z,12.10
2023-05-13T09:03:04.771Z,12.63
2023-05-13T09:08:09.177Z,14.05
2023-05-13T09:13:13.266Z,17.77
2023-05-13T09:18:18.551Z,13.52
2023-05-13T09:23:23.615Z,11.25
2023-05-13T09:28:25.656Z,14.25
2023-05-13T09:33:30.281Z,12.93
2023-05-13T09:38:37.149Z,12.45
2023-05-13T09:43:40.008Z,13.93
2023-05-13T09:48:43.732Z,14.43
2023-05-13T09:53:47.453Z,13.13
2023-05-13T09:58:53.673Z,16.73
2023-05-13T10:03:58.875Z,12.23
2023-05-13T10:09:03.616Z,10.00
2023-05-13T10:14:07.187Z,10.38
2023-05-13T10:19:10.354Z,8.50
2023-05-13T10:24:13.817Z,8.75
2023-05-13T10:29:16.786Z,8.82
2023-05-13T10:34:18.933Z,7.78
2023-05-13T10:39:27.095Z,7.72
2023-05-13T10:44:29.390Z,10.80
2023-05-13T10:49:36.237Z,8.40
2023-05-13T10:54:41.849Z,12.80
2023-05-13T11:00:12.480Z,10.93
2023-05-13T11:05:21.305Z,7.18
2023-05-13T11:10:25.887Z,8.13
2023-05-13T11:15:48.965Z,10.30
2023-05-13T11:21:03.790Z,11.43
2023-05-13T11:26:17.000Z,13.10
2023-05-13T11:31:19.273Z,10.93
2023-05-13T11:36:22.053Z,8.90
2023-05-13T11:41:25.017Z,10.90
2023-05-13T11:46:27.125Z,8.60
2023-05-13T11:51:31.892Z,10.00
2023-05-13T11:56:34.275Z,9.73
2023-05-13T12:01:37.444Z,7.18
2023-05-13T12:06:45.938Z,9.20
2023-05-13T12:11:49.327Z,8.02
2023-05-13T12:16:51.832Z,8.10
2023-05-13T12:21:54.636Z,12.60
2023-05-13T12:27:04.969Z,6.75
2023-05-13T12:32:07.342Z,7.38
2023-05-13T12:37:13.644Z,9.70
2023-05-13T12:42:17.296Z,9.05
2023-05-13T12:47:20.159Z,7.40
2023-05-13T12:52:22.387Z,5.70
2023-05-13T12:57:24.493Z,8.20
2023-05-13T13:02:27.011Z,10.30
2023-05-13T13:07:29.240Z,6.30
2023-05-13T13:12:31.314Z,6.82
2023-05-13T13:17:33.517Z,8.60
2023-05-13T13:22:37.173Z,7.38
2023-05-13T13:27:39.427Z,9.35
2023-05-13T13:32:41.567Z,11.95
2023-05-13T13:37:43.804Z,6.90
2023-05-13T13:42:46.048Z,8.85
2023-05-13T13:47:48.106Z,14.52
2023-05-13T13:52:52.684Z,8.98
2023-05-13T13:57:55.578Z,12.93
2023-05-13T14:02:57.715Z,7.82
2023-05-13T14:07:59.874Z,8.27
2023-05-13T14:13:02.035Z,8.18
2023-05-13T14:18:07.685Z,9.10
2023-05-13T14:23:09.859Z,8.40
2023-05-13T14:28:13.402Z,9.65
2023-05-13T14:33:15.627Z,10.50
2023-05-13T14:38:17.667Z,4.65
2023-05-13T14:43:20.150Z,6.18
2023-05-13T14:48:22.616Z,6.22
2023-05-13T14:53:24.811Z,10.15
2023-05-13T14:58:26.979Z,5.68
2023-05-13T15:03:29.435Z,8.30
2023-05-13T15:08:31.753Z,5.32
2023-05-13T15:13:35.341Z,6.90
2023-05-13T15:18:37.383Z,5.82
2023-05-13T15:23:39.998Z,7.00
2023-05-13T15:28:42.425Z,8.65
2023-05-13T15:33:45.315Z,5.82
2023-05-13T15:38:47.776Z,5.32
2023-05-13T15:43:49.838Z,7.30
2023-05-13T15:48:52.090Z,6.28
2023-05-13T15:53:54.612Z,4.78
2023-05-13T15:58:56.775Z,7.82
2023-05-13T16:03:59.360Z,10.23
2023-05-13T16:09:02.066Z,5.90
2023-05-13T16:14:04.624Z,5.93
2023-05-13T16:19:08.394Z,5.43
2023-05-13T16:24:11.165Z,7.03
2023-05-13T16:29:13.167Z,6.25
2023-05-13T16:34:15.412Z,7.40
2023-05-13T16:39:17.860Z,6.40
2023-05-13T16:44:20.271Z,7.28
2023-05-13T16:49:22.645Z,7.93
2023-05-13T16:54:25.514Z,8.27
2023-05-13T16:59:28.414Z,10.35
2023-05-13T17:04:30.447Z,5.65
2023-05-13T17:09:34.083Z,7.05
2023-05-13T17:14:36.597Z,11.45
2023-05-13T17:19:38.866Z,10.57
2023-05-13T17:24:41.226Z,7.43
2023-05-13T17:29:43.546Z,7.63
2023-05-13T17:34:45.831Z,7.35
2023-05-13T17:39:48.110Z,8.40
2023-05-13T17:44:50.347Z,12.35
2023-05-13T17:49:52.550Z,10.35
2023-05-13T17:54:58.370Z,10.55
2023-05-13T18:00:00.534Z,9.77
2023-05-13T18:05:02.725Z,8.48
2023-05-13T18:10:05.839Z,9.27
2023-05-13T18:15:08.236Z,10.88
2023-05-13T18:20:10.891Z,6.95
2023-05-13T18:25:13.178Z,7.75
2023-05-13T18:30:16.063Z,8.63
2023-05-13T18:35:21.315Z,10.13
2023-05-13T18:40:23.957Z,10.13
2023-05-13T18:45:26.271Z,10.98
2023-05-13T18:50:28.563Z,10.25
2023-05-13T18:55:30.631Z,7.78
2023-05-13T19:00:32.800Z,12.25
2023-05-13T19:05:34.881Z,11.40
2023-05-13T19:10:39.886Z,10.65
2023-05-13T19:15:42.607Z,7.35
2023-05-13T19:20:46.494Z,9.82
2023-05-13T19:25:48.636Z,10.88
2023-05-13T19:30:51.277Z,12.57
2023-05-13T19:35:53.638Z,12.90
2023-05-13T19:40:56.453Z,16.48
2023-05-13T19:45:58.580Z,15.50
2023-05-13T19:51:00.763Z,13.57
2023-05-13T19:56:03.574Z,13.57
2023-05-13T20:01:06.126Z,14.13
2023-05-13T20:06:08.350Z,16.73
2023-05-13T20:11:10.560Z,14.40
2023-05-13T20:16:12.905Z,15.25
2023-05-13T20:21:15.149Z,16.15
2023-05-13T20:26:17.261Z,17.17
2023-05-13T20:31:19.458Z,14.93
2023-05-13T20:36:22.095Z,14.07
2023-05-13T20:41:27.418Z,17.08
2023-05-13T20:46:29.641Z,17.75
2023-05-13T20:51:31.866Z,17.25
2023-05-13T20:56:34.049Z,17.15
2023-05-13T21:01:36.399Z,15.40
2023-05-13T21:06:38.543Z,13.57
2023-05-13T21:11:40.624Z,12.45
2023-05-13T21:16:42.938Z,17.30
2023-05-13T21:21:45.220Z,14.85
2023-05-13T21:26:48.878Z,16.17
2023-05-13T21:31:51.199Z,17.60
2023-05-13T21:36:53.675Z,17.92
2023-05-13T21:41:56.274Z,16.90
2023-05-13T21:46:58.556Z,20.15
2023-05-13T21:52:00.782Z,15.70
2023-05-13T21:57:03.011Z,18.73
2023-05-13T22:02:05.560Z,20.10
2023-05-13T22:07:07.823Z,17.10
2023-05-13T22:12:09.944Z,22.65
2023-05-13T22:17:12.449Z,22.55
2023-05-13T22:22:14.578Z,20.40
2023-05-13T22:27:16.953Z,30.95
2023-05-13T22:32:19.032Z,24.35
2023-05-13T22:37:21.221Z,22.85
2023-05-13T22:42:23.477Z,25.77
2023-05-13T22:47:25.866Z,23.73
2023-05-13T22:52:27.957Z,21.30
2023-05-13T22:57:30.090Z,29.83
2023-05-13T23:02:32.201Z,25.15
2023-05-13T23:07:34.337Z,26.30
2023-05-13T23:12:36.355Z,23.08
2023-05-13T23:17:38.565Z,29.48
2023-05-13T23:22:40.963Z,26.45
2023-05-13T23:27:43.113Z,31.83
2023-05-13T23:32:45.462Z,26.05
2023-05-13T23:37:47.648Z,25.55
2023-05-13T23:42:49.793Z,33.55
2023-05-13T23:47:51.955Z,29.73
2023-05-13T23:52:54.696Z,29.75
2023-05-13T23:57:56.799Z,35.25
